Time;durP1;ratioP1;P1;durP2;ratioP2;P2;SDS_P1;SDS_P2;PMS_P1;PMS_P2;Temp;Humidity;BMP_temperature;BMP_pressure;BME280_temperature;BME280_humidity;BME280_pressure;Samples;Min_cycle;Max_cycle;Signal;HPM_P1;HPM_P2
2022/01/27 00:01:07;;;;;;;82.80;42.55;;;;;;;-144.47;100.00;61586.06;4973880;28;20492;-79
2022/01/27 00:03:43;;;;;;;102.85;44.33;;;;;;;-144.47;100.00;61586.06;4972811;28;20117;-78
2022/01/27 00:06:10;;;;;;;98.22;43.03;;;;;;;-144.47;100.00;61586.06;4971741;28;20043;-78
2022/01/27 00:08:52;;;;;;;101.03;43.47;;;;;;;-144.47;100.00;61586.06;4955213;28;20050;-77
2022/01/27 00:11:17;;;;;;;84.72;44.00;;;;;;;-144.47;100.00;61586.06;4970771;28;20038;-79
2022/01/27 00:13:53;;;;;;;122.82;44.80;;;;;;;-144.47;100.00;61586.06;4964881;28;20109;-78
2022/01/27 00:16:26;;;;;;;100.82;43.28;;;;;;;-144.47;100.00;61586.06;4965431;28;20030;-78
2022/01/27 00:18:54;;;;;;;88.25;44.25;;;;;;;-144.47;100.00;61586.06;4971646;28;20035;-77
2022/01/27 00:21:22;;;;;;;112.43;41.25;;;;;;;-144.47;100.00;61586.06;4962699;28;20034;-78
2022/01/27 00:23:48;;;;;;;102.85;45.65;;;;;;;-144.47;100.00;61586.06;4962617;28;20035;-79
2022/01/27 00:26:15;;;;;;;108.50;45.63;;;;;;;-144.47;100.00;61586.06;4962934;28;20035;-78
2022/01/27 00:28:41;;;;;;;97.57;44.30;;;;;;;-144.47;100.00;61586.06;4944640;28;20400;-78
2022/01/27 00:31:06;;;;;;;119.82;45.40;;;;;;;-144.47;100.00;61586.06;4964180;28;20157;-79
2022/01/27 00:33:32;;;;;;;103.35;45.15;;;;;;;-144.47;100.00;61586.06;4961037;28;20551;-78
2022/01/27 00:35:58;;;;;;;99.68;44.83;;;;;;;-144.47;100.00;61586.06;4964003;28;20471;-78
2022/01/27 00:38:23;;;;;;;118.18;42.78;;;;;;;-144.47;100.00;61586.06;4962341;28;20039;-79
2022/01/27 00:40:49;;;;;;;120.60;44.92;;;;;;;-144.47;100.00;61586.06;4962751;28;20171;-78
2022/01/27 00:43:15;;;;;;;106.40;44.78;;;;;;;-144.47;100.00;61586.06;4963010;28;20035;-79
2022/01/27 00:45:40;;;;;;;103.35;44.50;;;;;;;-144.47;100.00;61586.06;4965459;28;20088;-79
2022/01/27 00:48:06;;;;;;;103.93;43.53;;;;;;;-144.47;100.00;61586.06;4966767;28;20111;-79
2022/01/27 00:50:34;;;;;;;101.40;45.10;;;;;;;-144.47;100.00;61586.06;4964573;28;20047;-78
2022/01/27 00:53:03;;;;;;;95.25;46.05;;;;;;;-144.47;100.00;61586.06;4960968;28;20058;-79
2022/01/27 00:55:33;;;;;;;106.45;42.33;;;;;;;-144.47;100.00;61586.06;4965329;28;20059;-78
2022/01/27 01:00:52;;;;;;;110.60;43.40;;;;;;;-144.47;100.00;61586.06;4964872;28;20112;-79
2022/01/27 01:03:27;;;;;;;99.38;44.47;;;;;;;-144.47;100.00;61586.06;4962161;28;20039;-80
2022/01/27 01:06:10;;;;;;;122.40;44.83;;;;;;;-144.47;100.00;61586.06;4962056;28;20033;-78
2022/01/27 01:16:32;;;;;;;111.90;42.10;;;;;;;-144.47;100.00;61586.06;4964111;28;20062;-78
2022/01/27 01:19:09;;;;;;;112.38;42.88;;;;;;;-144.47;100.00;61586.06;4963310;28;20050;-79
2022/01/27 01:34:30;;;;;;;83.50;41.05;;;;;;;-144.47;100.00;61586.06;4978771;28;20035;-78
2022/01/27 01:37:00;;;;;;;87.97;42.50;;;;;;;-144.47;100.00;61586.06;4981503;28;20036;-78
2022/01/27 01:39:28;;;;;;;105.78;43.80;;;;;;;-144.47;100.00;61586.06;4978752;28;20033;-78
2022/01/27 01:41:54;;;;;;;104.93;43.28;;;;;;;-144.47;100.00;61586.06;4973708;28;20034;-78
2022/01/27 01:44:20;;;;;;;93.90;40.58;;;;;;;-144.47;100.00;61586.06;4964768;28;20045;-79
2022/01/27 01:46:46;;;;;;;105.75;40.60;;;;;;;-144.47;100.00;61586.06;4966584;28;20030;-78
2022/01/27 01:49:12;;;;;;;97.03;41.47;;;;;;;-144.47;100.00;61586.06;4959465;28;20035;-77
2022/01/27 01:51:39;;;;;;;89.22;41.80;;;;;;;-144.47;100.00;61586.06;4965705;28;20043;-78
2022/01/27 01:54:07;;;;;;;99.45;41.65;;;;;;;-144.47;100.00;61586.06;4975286;28;20087;-79
2022/01/27 01:56:32;;;;;;;100.78;43.92;;;;;;;-144.47;100.00;61586.06;4982424;28;20098;-79
2022/01/27 01:58:58;;;;;;;90.53;43.67;;;;;;;-144.47;100.00;61586.06;4974389;28;20039;-78
2022/01/27 02:01:25;;;;;;;97.28;44.55;;;;;;;-144.47;100.00;61586.06;4978081;28;20047;-78
2022/01/27 02:03:51;;;;;;;101.57;43.85;;;;;;;-144.47;100.00;61586.06;4975851;28;20435;-78
2022/01/27 02:06:25;;;;;;;99.72;45.20;;;;;;;-144.47;100.00;61586.06;4965038;28;20059;-79
2022/01/27 02:19:43;;;;;;;91.88;44.38;;;;;;;-144.47;100.00;61586.06;4968483;28;20129;-75
2022/01/27 02:22:09;;;;;;;95.07;45.03;;;;;;;-144.47;100.00;61586.06;4972179;28;20101;-75
2022/01/27 02:24:36;;;;;;;107.00;43.58;;;;;;;-144.47;100.00;61586.06;4974646;28;20019;-75
2022/01/27 02:27:05;;;;;;;95.60;44.88;;;;;;;-144.47;100.00;61586.06;4970241;28;20502;-73
2022/01/27 02:29:30;;;;;;;109.18;47.17;;;;;;;-144.47;100.00;61586.06;4973867;28;20097;-75
2022/01/27 02:31:58;;;;;;;96.32;44.38;;;;;;;-144.47;100.00;61586.06;4974349;28;20031;-75
2022/01/27 02:34:24;;;;;;;100.15;45.25;;;;;;;-144.47;100.00;61586.06;4974079;28;20110;-75
2022/01/27 02:36:51;;;;;;;98.78;45.17;;;;;;;-144.47;100.00;61586.06;4973724;28;20030;-75
2022/01/27 02:39:17;;;;;;;95.30;44.17;;;;;;;-144.47;100.00;61586.06;4971931;28;20046;-75
2022/01/27 02:41:51;;;;;;;123.15;44.47;;;;;;;-144.47;100.00;61586.06;4973825;28;20091;-75
2022/01/27 02:44:42;;;;;;;83.93;41.28;;;;;;;-144.47;100.00;61586.06;4973598;28;20121;-73
2022/01/27 02:47:07;;;;;;;103.93;43.45;;;;;;;-144.47;100.00;61586.06;4970413;28;20031;-74
2022/01/27 02:49:33;;;;;;;90.05;42.10;;;;;;;-144.47;100.00;61586.06;4973297;28;20118;-74
2022/01/27 02:51:58;;;;;;;107.70;41.65;;;;;;;-144.47;100.00;61586.06;4971920;28;20027;-75
2022/01/27 02:54:24;;;;;;;109.30;41.47;;;;;;;-144.47;100.00;61586.06;4971485;28;20057;-72
2022/01/27 02:56:49;;;;;;;104.55;42.03;;;;;;;-144.47;100.00;61586.06;4973677;28;20145;-73
2022/01/27 02:59:16;;;;;;;91.53;42.42;;;;;;;-144.47;100.00;61586.06;4972650;28;20127;-74
2022/01/27 03:01:49;;;;;;;88.03;43.38;;;;;;;-144.47;100.00;61586.06;4973156;28;20041;-76
2022/01/27 03:04:16;;;;;;;84.97;42.97;;;;;;;-144.47;100.00;61586.06;4971393;28;20124;-74
2022/01/27 03:06:42;;;;;;;85.75;41.85;;;;;;;-144.47;100.00;61586.06;4973090;28;20033;-75
2022/01/27 03:09:08;;;;;;;121.80;43.95;;;;;;;-144.47;100.00;61586.06;4972230;28;20047;-75
2022/01/27 03:11:43;;;;;;;108.95;42.17;;;;;;;-144.47;100.00;61586.06;4973142;28;20085;-74
2022/01/27 03:14:08;;;;;;;93.30;41.17;;;;;;;-144.47;100.00;61586.06;4970416;28;20062;-75
2022/01/27 03:16:34;;;;;;;87.72;42.63;;;;;;;-144.47;100.00;61586.06;4973544;28;20056;-74
2022/01/27 03:18:59;;;;;;;82.65;40.75;;;;;;;-144.47;100.00;61586.06;4972611;28;20065;-74
2022/01/27 03:21:25;;;;;;;85.90;41.58;;;;;;;-144.47;100.00;61586.06;4971270;28;20102;-74
2022/01/27 03:23:51;;;;;;;100.57;41.22;;;;;;;-144.47;100.00;61586.06;4972414;28;20030;-73
2022/01/27 03:26:16;;;;;;;81.88;41.38;;;;;;;-144.47;100.00;61586.06;4970908;28;20483;-74
2022/01/27 03:28:46;;;;;;;84.43;41.78;;;;;;;-144.47;100.00;61586.06;4971598;28;20464;-74
2022/01/27 03:31:12;;;;;;;71.13;37.85;;;;;;;-144.47;100.00;61586.06;4972137;28;20031;-74
2022/01/27 03:33:39;;;;;;;72.53;37.15;;;;;;;-144.47;100.00;61586.06;4970562;28;20373;-73
2022/01/27 03:36:05;;;;;;;79.43;40.53;;;;;;;-144.47;100.00;61586.06;4972462;28;20416;-74
2022/01/27 03:38:30;;;;;;;85.95;41.88;;;;;;;-144.47;100.00;61586.06;4972337;28;20037;-76
2022/01/27 03:40:57;;;;;;;81.38;41.40;;;;;;;-144.47;100.00;61586.06;4970809;28;20480;-75
2022/01/27 03:43:24;;;;;;;79.93;40.28;;;;;;;-144.47;100.00;61586.06;4972244;28;20129;-74
2022/01/27 03:45:49;;;;;;;86.32;43.28;;;;;;;-144.47;100.00;61586.06;4972307;28;20034;-74
2022/01/27 03:48:15;;;;;;;82.13;41.13;;;;;;;-144.47;100.00;61586.06;4972019;28;20038;-75
2022/01/27 03:50:40;;;;;;;79.38;39.63;;;;;;;-144.47;100.00;61586.06;4972199;28;20034;-75
2022/01/27 03:53:06;;;;;;;77.10;39.88;;;;;;;-144.47;100.00;61586.06;4971773;28;20384;-75
2022/01/27 03:55:31;;;;;;;79.28;39.85;;;;;;;-144.47;100.00;61586.06;4971785;28;20035;-76
2022/01/27 03:57:56;;;;;;;81.32;41.42;;;;;;;-144.47;100.00;61586.06;4972082;28;20073;-76
2022/01/27 04:00:22;;;;;;;84.18;40.50;;;;;;;-144.47;100.00;61586.06;4971763;28;20039;-73
2022/01/27 04:03:01;;;;;;;87.25;41.85;;;;;;;-144.47;100.00;61586.06;4972132;28;20037;-74
2022/01/27 04:05:33;;;;;;;84.55;41.70;;;;;;;-144.47;100.00;61586.06;4971923;28;20043;-74
2022/01/27 04:07:58;;;;;;;81.00;40.33;;;;;;;-144.47;100.00;61586.06;4971820;28;20030;-74
2022/01/27 04:10:24;;;;;;;81.18;40.08;;;;;;;-144.47;100.00;61586.06;4971085;28;20069;-74
2022/01/27 04:12:50;;;;;;;86.25;42.30;;;;;;;-144.47;100.00;61586.06;4971750;28;20043;-75
2022/01/27 04:15:15;;;;;;;73.40;37.33;;;;;;;-144.47;100.00;61586.06;4971551;28;20105;-75
2022/01/27 04:17:41;;;;;;;85.45;41.08;;;;;;;-144.47;100.00;61586.06;4972045;28;20030;-73
2022/01/27 04:20:06;;;;;;;89.53;40.72;;;;;;;-144.47;100.00;61586.06;4971380;28;20038;-74
2022/01/27 04:22:32;;;;;;;87.63;40.22;;;;;;;-144.47;100.00;61586.06;4967464;28;20031;-73
2022/01/27 04:24:57;;;;;;;92.88;41.80;;;;;;;-144.47;100.00;61586.06;4971263;28;20070;-75
2022/01/27 04:27:29;;;;;;;82.47;38.90;;;;;;;-144.47;100.00;61586.06;4971297;28;20587;-75
2022/01/27 04:29:54;;;;;;;89.65;40.95;;;;;;;-144.47;100.00;61586.06;4970026;28;20035;-75
2022/01/27 04:32:25;;;;;;;99.28;40.22;;;;;;;-144.47;100.00;61586.06;4970820;28;20049;-75
2022/01/27 04:34:53;;;;;;;82.35;39.05;;;;;;;-144.47;100.00;61586.06;4971049;28;20074;-75
2022/01/27 04:37:22;;;;;;;81.22;39.72;;;;;;;-144.47;100.00;61586.06;4970526;28;20491;-75
2022/01/27 04:40:04;;;;;;;76.85;39.03;;;;;;;-144.47;100.00;61586.06;4952927;28;20031;-75
2022/01/27 04:42:44;;;;;;;108.43;39.58;;;;;;;-144.47;100.00;61586.06;4969653;28;20042;-74
2022/01/27 04:45:11;;;;;;;92.70;39.10;;;;;;;-144.47;100.00;61586.06;4966573;28;20039;-75
2022/01/27 04:47:42;;;;;;;80.30;38.90;;;;;;;-144.47;100.00;61586.06;4970680;28;20383;-74
2022/01/27 04:50:08;;;;;;;87.38;39.50;;;;;;;-144.47;100.00;61586.06;4967690;28;20057;-75
2022/01/27 04:52:38;;;;;;;117.18;39.17;;;;;;;-144.47;100.00;61586.06;4971167;28;20030;-74
2022/01/27 04:55:08;;;;;;;144.73;39.40;;;;;;;-144.47;100.00;61586.06;4966505;28;20042;-74
2022/01/27 04:57:36;;;;;;;123.13;41.08;;;;;;;-144.47;100.00;61586.06;4967235;28;20042;-75
2022/01/27 05:00:02;;;;;;;161.10;41.28;;;;;;;-144.47;100.00;61586.06;4969298;28;20034;-74
2022/01/27 05:02:42;;;;;;;88.78;40.28;;;;;;;-144.47;100.00;61586.06;4970614;28;20038;-73
2022/01/27 05:05:08;;;;;;;103.05;37.78;;;;;;;-144.47;100.00;61586.06;4966937;28;20030;-74
2022/01/27 05:07:33;;;;;;;129.85;38.90;;;;;;;-144.47;100.00;61586.06;4970568;28;20419;-74
2022/01/27 05:10:08;;;;;;;108.93;37.75;;;;;;;-144.47;100.00;61586.06;4969573;28;20042;-75
2022/01/27 05:12:41;;;;;;;113.78;39.03;;;;;;;-144.47;100.00;61586.06;4957928;28;20035;-75
2022/01/27 05:15:07;;;;;;;104.35;39.65;;;;;;;-144.47;100.00;61586.06;4966782;28;20070;-75
2022/01/27 05:17:32;;;;;;;83.95;38.58;;;;;;;-144.47;100.00;61586.06;4966497;28;20443;-74
2022/01/27 05:19:58;;;;;;;74.50;38.10;;;;;;;-144.47;100.00;61586.06;4970424;28;20113;-74
2022/01/27 05:22:23;;;;;;;88.97;41.25;;;;;;;-144.47;100.00;61586.06;4970343;28;20046;-75
2022/01/27 05:24:49;;;;;;;236.05;42.42;;;;;;;-144.47;100.00;61586.06;4970114;28;20066;-75
2022/01/27 05:27:14;;;;;;;82.85;37.72;;;;;;;-144.47;100.00;61586.06;4970132;28;20030;-74
2022/01/27 05:29:40;;;;;;;118.60;33.88;;;;;;;-144.47;100.00;61586.06;4968976;28;20137;-75
2022/01/27 05:32:06;;;;;;;79.80;34.58;;;;;;;-144.47;100.00;61586.06;4969998;28;20109;-74
2022/01/27 05:34:32;;;;;;;170.35;37.58;;;;;;;-144.47;100.00;61586.06;4970214;28;20559;-73
2022/01/27 05:36:57;;;;;;;188.32;37.75;;;;;;;-144.47;100.00;61586.06;4970343;28;20518;-75
2022/01/27 05:39:22;;;;;;;81.85;36.45;;;;;;;-144.47;100.00;61586.06;4969599;28;20440;-75
2022/01/27 05:41:48;;;;;;;128.70;36.95;;;;;;;-144.47;100.00;61586.06;4970085;28;20051;-74
2022/01/27 05:44:14;;;;;;;84.82;37.20;;;;;;;-144.47;100.00;61586.06;4969663;28;20035;-74
2022/01/27 05:46:39;;;;;;;100.25;34.20;;;;;;;-144.47;100.00;61586.06;4970229;28;20062;-75
2022/01/27 05:49:04;;;;;;;73.68;35.70;;;;;;;-144.47;100.00;61586.06;4969806;28;20036;-74
2022/01/27 05:51:30;;;;;;;70.50;35.75;;;;;;;-144.47;100.00;61586.06;4970234;28;20027;-74
2022/01/27 05:53:55;;;;;;;117.95;33.90;;;;;;;-144.47;100.00;61586.06;4969941;28;20031;-74
2022/01/27 05:56:21;;;;;;;63.25;33.58;;;;;;;-144.47;100.00;61586.06;4970120;28;20062;-74
2022/01/27 05:58:46;;;;;;;86.95;34.20;;;;;;;-144.47;100.00;61586.06;4973954;28;20487;-74
2022/01/27 06:01:12;;;;;;;87.78;37.20;;;;;;;-144.47;100.00;61586.06;4973266;28;20041;-75
2022/01/27 06:03:38;;;;;;;71.97;36.58;;;;;;;-144.47;100.00;61586.06;4973691;28;20079;-75
2022/01/27 06:06:04;;;;;;;102.97;37.97;;;;;;;-144.47;100.00;61586.06;4973480;28;20467;-74
2022/01/27 06:08:29;;;;;;;116.90;36.92;;;;;;;-144.47;100.00;61586.06;4973491;28;20034;-74
2022/01/27 06:10:55;;;;;;;74.72;36.65;;;;;;;-144.47;100.00;61586.06;4973280;28;20392;-74
2022/01/27 06:13:21;;;;;;;71.55;37.17;;;;;;;-144.47;100.00;61586.06;4971807;28;20468;-74
2022/01/27 06:15:46;;;;;;;82.43;38.72;;;;;;;-144.47;100.00;61586.06;4972156;28;20034;-73
2022/01/27 06:18:12;;;;;;;108.68;34.50;;;;;;;-144.47;100.00;61586.06;4973076;28;20045;-77
2022/01/27 06:20:39;;;;;;;72.47;36.42;;;;;;;-144.47;100.00;61586.06;4972669;28;20031;-75
2022/01/27 06:23:04;;;;;;;76.55;36.95;;;;;;;-144.47;100.00;61586.06;4970152;28;20510;-75
2022/01/27 06:25:30;;;;;;;89.38;35.75;;;;;;;-144.47;100.00;61586.06;4972649;28;20027;-74
2022/01/27 06:27:56;;;;;;;105.60;38.28;;;;;;;-144.47;100.00;61586.06;4973435;28;20090;-71
2022/01/27 06:30:22;;;;;;;78.32;38.47;;;;;;;-144.47;100.00;61586.06;4973526;28;20039;-74
2022/01/27 06:32:48;;;;;;;79.32;38.53;;;;;;;-144.47;100.00;61586.06;4973705;28;20027;-74
2022/01/27 06:35:14;;;;;;;107.47;36.22;;;;;;;-144.47;100.00;61586.06;4956136;28;20039;-74
2022/01/27 06:37:42;;;;;;;78.50;36.88;;;;;;;-144.47;100.00;61586.06;4623341;28;9999960;-73
2022/01/27 06:40:12;;;;;;;66.40;36.13;;;;;;;-144.47;100.00;61586.06;4955139;28;20043;-73
2022/01/27 06:42:38;;;;;;;87.90;38.30;;;;;;;-144.47;100.00;61586.06;4961184;28;20031;-75
2022/01/27 06:45:05;;;;;;;99.60;38.42;;;;;;;-144.47;100.00;61586.06;4960660;28;20035;-74
2022/01/27 06:47:30;;;;;;;85.00;37.95;;;;;;;-144.47;100.00;61586.06;4961083;28;20117;-75
2022/01/27 06:49:55;;;;;;;77.55;36.47;;;;;;;-144.47;100.00;61586.06;4962379;28;20082;-74
2022/01/27 06:52:23;;;;;;;77.40;40.55;;;;;;;-144.47;100.00;61586.06;4279041;28;10021484;-74
2022/01/27 06:54:50;;;;;;;75.50;38.80;;;;;;;-144.47;100.00;61586.06;4962458;28;20015;-73
2022/01/27 06:57:16;;;;;;;75.40;38.78;;;;;;;-144.47;100.00;61586.06;4959550;28;20097;-73
2022/01/27 06:59:41;;;;;;;73.18;37.55;;;;;;;-144.47;100.00;61586.06;4961401;28;20023;-74
2022/01/27 07:02:07;;;;;;;123.18;38.50;;;;;;;-144.47;100.00;61586.06;4963375;28;20038;-74
2022/01/27 07:04:32;;;;;;;77.40;38.25;;;;;;;-144.47;100.00;61586.06;4968445;28;20101;-74
2022/01/27 07:06:58;;;;;;;93.65;36.97;;;;;;;-144.47;100.00;61586.06;4972113;28;20023;-73
2022/01/27 07:09:23;;;;;;;117.78;38.13;;;;;;;-144.47;100.00;61586.06;4968761;28;20415;-74
2022/01/27 07:11:49;;;;;;;68.10;37.05;;;;;;;-144.47;100.00;61586.06;4971962;28;20046;-73
2022/01/27 07:14:14;;;;;;;77.50;35.85;;;;;;;-144.47;100.00;61586.06;4971938;28;20030;-73
2022/01/27 07:16:40;;;;;;;113.68;35.83;;;;;;;-144.47;100.00;61586.06;4972172;28;20058;-74
2022/01/27 07:19:06;;;;;;;68.57;35.97;;;;;;;-144.47;100.00;61586.06;4971324;28;20208;-73
2022/01/27 07:21:31;;;;;;;67.80;35.20;;;;;;;-144.47;100.00;61586.06;4971881;28;20023;-73
2022/01/27 07:23:57;;;;;;;67.78;34.10;;;;;;;-144.47;100.00;61586.06;4972050;28;20039;-74
2022/01/27 07:26:25;;;;;;;72.15;38.00;;;;;;;-144.47;100.00;61586.06;4971849;28;20125;-74
2022/01/27 07:28:52;;;;;;;74.68;36.63;;;;;;;-144.47;100.00;61586.06;4972170;28;20093;-73
2022/01/27 07:31:18;;;;;;;81.05;36.38;;;;;;;-144.47;100.00;61586.06;4972057;28;20035;-74
2022/01/27 07:33:44;;;;;;;64.53;35.72;;;;;;;-144.47;100.00;61586.06;4972681;28;20085;-73
2022/01/27 07:36:09;;;;;;;69.28;35.80;;;;;;;-144.47;100.00;61586.06;4971879;28;20035;-73
2022/01/27 07:38:35;;;;;;;69.60;37.47;;;;;;;-144.47;100.00;61586.06;4971972;28;20497;-74
2022/01/27 07:41:01;;;;;;;73.53;38.63;;;;;;;-144.47;100.00;61586.06;4971234;28;20031;-73
2022/01/27 07:43:26;;;;;;;68.13;36.92;;;;;;;-144.47;100.00;61586.06;4970788;28;20035;-73
2022/01/27 07:45:52;;;;;;;66.53;37.22;;;;;;;-144.47;100.00;61586.06;4972027;28;20463;-74
2022/01/27 07:48:17;;;;;;;74.65;38.47;;;;;;;-144.47;100.00;61586.06;4971364;28;20475;-74
2022/01/27 07:50:44;;;;;;;73.72;37.85;;;;;;;-144.47;100.00;61586.06;4971531;28;20038;-73
2022/01/27 07:53:09;;;;;;;67.07;37.90;;;;;;;-144.47;100.00;61586.06;4969878;28;20038;-74
2022/01/27 07:55:36;;;;;;;73.38;39.53;;;;;;;-144.47;100.00;61586.06;4971445;28;20023;-73
2022/01/27 07:58:02;;;;;;;72.38;39.53;;;;;;;-144.47;100.00;61586.06;4971475;28;20114;-73
2022/01/27 08:00:27;;;;;;;92.32;38.75;;;;;;;-144.47;100.00;61586.06;4971312;28;20042;-73
2022/01/27 08:02:53;;;;;;;81.65;39.10;;;;;;;-144.47;100.00;61586.06;4971593;28;20086;-74
2022/01/27 08:05:20;;;;;;;68.82;36.10;;;;;;;-144.47;100.00;61586.06;4971183;28;20041;-74
2022/01/27 08:07:46;;;;;;;66.60;36.40;;;;;;;-144.47;100.00;61586.06;4971448;28;20109;-74
2022/01/27 08:10:12;;;;;;;70.72;36.28;;;;;;;-144.47;100.00;61586.06;4970392;28;20464;-74
2022/01/27 08:12:42;;;;;;;87.32;38.10;;;;;;;-144.47;100.00;61586.06;4971316;28;20031;-73
2022/01/27 08:15:08;;;;;;;72.10;38.00;;;;;;;-144.47;100.00;61586.06;4967540;28;20035;-73
2022/01/27 08:17:33;;;;;;;96.05;38.78;;;;;;;-144.47;100.00;61586.06;4966089;28;20122;-74
2022/01/27 08:19:59;;;;;;;79.95;38.25;;;;;;;-144.47;100.00;61586.06;4970685;28;20073;-74
2022/01/27 08:22:24;;;;;;;69.40;36.97;;;;;;;-144.47;100.00;61586.06;4971007;28;20031;-74
2022/01/27 08:24:50;;;;;;;75.22;36.15;;;;;;;-144.47;100.00;61586.06;4970890;28;20239;-74
2022/01/27 08:27:18;;;;;;;67.35;37.00;;;;;;;-144.47;100.00;61586.06;4970811;28;20026;-73
2022/01/27 08:29:49;;;;;;;74.15;38.33;;;;;;;-144.47;100.00;61586.06;4971214;28;20034;-74
2022/01/27 08:32:18;;;;;;;75.45;39.00;;;;;;;-144.47;100.00;61586.06;4969743;28;20035;-73
2022/01/27 08:34:44;;;;;;;75.03;39.58;;;;;;;-144.47;100.00;61586.06;4957335;28;20024;-72
2022/01/27 08:37:17;;;;;;;91.93;41.08;;;;;;;-144.47;100.00;61586.06;4957697;28;20035;-73
2022/01/27 08:39:43;;;;;;;91.78;41.35;;;;;;;-144.47;100.00;61586.06;4961059;28;20043;-73
2022/01/27 08:42:09;;;;;;;74.70;39.97;;;;;;;-144.47;100.00;61586.06;4957403;28;20043;-71
2022/01/27 08:44:35;;;;;;;80.78;40.53;;;;;;;-144.47;100.00;61586.06;4958868;28;20023;-71
2022/01/27 08:47:01;;;;;;;84.95;40.50;;;;;;;-144.47;100.00;61586.06;4957378;28;20031;-71
2022/01/27 08:49:27;;;;;;;79.28;41.28;;;;;;;-144.47;100.00;61586.06;4959744;28;20035;-71
2022/01/27 08:51:54;;;;;;;85.45;40.92;;;;;;;-144.47;100.00;61586.06;4957734;28;20090;-73
2022/01/27 08:54:20;;;;;;;79.90;42.05;;;;;;;-144.47;100.00;61586.06;4957713;28;20554;-73
2022/01/27 08:56:45;;;;;;;79.65;41.83;;;;;;;-144.47;100.00;61586.06;4957652;28;20114;-74
2022/01/27 08:59:11;;;;;;;76.00;40.22;;;;;;;-144.47;100.00;61586.06;4957538;28;20066;-73
2022/01/27 09:01:38;;;;;;;83.88;43.53;;;;;;;-144.47;100.00;61586.06;4958238;28;20055;-73
2022/01/27 09:04:04;;;;;;;118.25;41.83;;;;;;;-144.47;100.00;61586.06;4961448;28;20039;-71
2022/01/27 09:06:29;;;;;;;82.68;40.80;;;;;;;-144.47;100.00;61586.06;4958992;28;20035;-71
2022/01/27 09:08:56;;;;;;;81.03;41.17;;;;;;;-144.47;100.00;61586.06;4958788;28;20415;-72
2022/01/27 09:11:22;;;;;;;72.80;39.30;;;;;;;-144.47;100.00;61586.06;4959766;28;20051;-73
2022/01/27 09:13:48;;;;;;;74.38;38.80;;;;;;;-144.47;100.00;61586.06;4960768;28;20046;-76
2022/01/27 09:16:14;;;;;;;70.35;38.60;;;;;;;-144.47;100.00;61586.06;4961392;28;20482;-75
2022/01/27 09:18:39;;;;;;;78.95;41.10;;;;;;;-144.47;100.00;61586.06;4959339;28;20071;-75
2022/01/27 09:21:11;;;;;;;80.10;42.55;;;;;;;-144.47;100.00;61586.06;4961730;28;20066;-74
2022/01/27 09:23:37;;;;;;;80.18;42.03;;;;;;;-144.47;100.00;61586.06;4967462;28;20039;-74
2022/01/27 09:26:07;;;;;;;79.80;40.80;;;;;;;-144.47;100.00;61586.06;4962715;28;20385;-73
2022/01/27 09:28:32;;;;;;;78.28;41.45;;;;;;;-144.47;100.00;61586.06;4959771;28;20392;-72
2022/01/27 09:30:58;;;;;;;74.78;40.60;;;;;;;-144.47;100.00;61586.06;4961761;28;20039;-73
2022/01/27 09:33:23;;;;;;;77.72;41.40;;;;;;;-144.47;100.00;61586.06;4964238;28;20046;-72
2022/01/27 09:35:49;;;;;;;75.72;39.80;;;;;;;-144.47;100.00;61586.06;4964650;28;20089;-72
2022/01/27 09:38:16;;;;;;;75.32;39.97;;;;;;;-144.47;100.00;61586.06;4963546;28;20038;-73
2022/01/27 09:40:43;;;;;;;74.45;38.95;;;;;;;-144.47;100.00;61586.06;4963594;28;20051;-71
2022/01/27 09:43:08;;;;;;;80.72;41.42;;;;;;;-144.47;100.00;61586.06;4965631;28;20545;-74
2022/01/27 09:45:38;;;;;;;82.18;42.63;;;;;;;-144.47;100.00;61586.06;4963094;28;20051;-73
2022/01/27 09:48:13;;;;;;;76.90;41.40;;;;;;;-144.47;100.00;61586.06;4964723;28;20065;-74
2022/01/27 09:50:59;;;;;;;88.28;43.90;;;;;;;-144.47;100.00;61586.06;4971155;28;20445;-73
2022/01/27 09:53:25;;;;;;;87.07;42.65;;;;;;;-144.47;100.00;61586.06;4974049;28;20034;-72
2022/01/27 09:55:50;;;;;;;78.95;42.92;;;;;;;-144.47;100.00;61586.06;4972948;28;20038;-72
2022/01/27 09:58:16;;;;;;;81.53;43.33;;;;;;;-144.47;100.00;61586.06;4965119;28;20496;-73
2022/01/27 10:00:41;;;;;;;79.65;42.22;;;;;;;-144.47;100.00;61586.06;4964878;28;20051;-71
2022/01/27 10:03:13;;;;;;;77.18;42.10;;;;;;;-144.47;100.00;61586.06;4964419;28;20046;-73
2022/01/27 10:05:40;;;;;;;80.18;43.03;;;;;;;-144.47;100.00;61586.06;4970738;28;20043;-71
2022/01/27 10:08:13;;;;;;;83.68;43.90;;;;;;;-144.47;100.00;61586.06;4970679;28;20030;-73
2022/01/27 10:10:42;;;;;;;77.47;41.88;;;;;;;-144.47;100.00;61586.06;4970640;28;20043;-74
2022/01/27 10:13:25;;;;;;;80.88;42.17;;;;;;;-144.47;100.00;61586.06;4973730;28;20041;-74
2022/01/27 10:15:51;;;;;;;78.35;43.50;;;;;;;-144.47;100.00;61586.06;4972556;28;20487;-73
2022/01/27 10:18:18;;;;;;;84.43;41.25;;;;;;;-144.47;100.00;61586.06;4965516;28;20133;-74
2022/01/27 10:21:00;;;;;;;81.25;42.03;;;;;;;-144.47;100.00;61586.06;4965884;28;20035;-74
2022/01/27 10:23:30;;;;;;;88.10;45.03;;;;;;;-144.47;100.00;61586.06;4973343;28;20039;-70
2022/01/27 10:26:07;;;;;;;83.82;43.15;;;;;;;-144.47;100.00;61586.06;4973374;28;20033;-71
2022/01/27 10:31:13;;;;;;;82.70;42.70;;;;;;;-144.47;100.00;61586.06;4970092;28;20030;-74
2022/01/27 10:33:41;;;;;;;83.15;41.85;;;;;;;-144.47;100.00;61586.06;4970126;28;20039;-71
2022/01/27 10:36:22;;;;;;;81.45;43.03;;;;;;;-144.47;100.00;61586.06;4973095;28;20109;-71
2022/01/27 10:38:50;;;;;;;79.82;41.80;;;;;;;-144.47;100.00;61586.06;4970188;28;20146;-73
2022/01/27 10:41:16;;;;;;;78.75;42.25;;;;;;;-144.47;100.00;61586.06;4967857;28;20042;-74
2022/01/27 10:43:41;;;;;;;81.45;43.17;;;;;;;-144.47;100.00;61586.06;4280709;28;10000708;-73
2022/01/27 10:48:53;;;;;;;83.60;44.15;;;;;;;-144.47;100.00;61586.06;4967425;28;20114;-74
2022/01/27 10:51:29;;;;;;;80.90;43.90;;;;;;;-144.47;100.00;61586.06;4968365;28;20562;-75
2022/01/27 10:54:04;;;;;;;90.35;46.90;;;;;;;-144.47;100.00;61586.06;4969745;28;20313;-76
2022/01/27 10:56:31;;;;;;;83.32;46.38;;;;;;;-144.47;100.00;61586.06;4964171;28;20043;-74
2022/01/27 10:58:58;;;;;;;88.40;46.83;;;;;;;-144.47;100.00;61586.06;4959767;28;20063;-74
2022/01/27 11:01:27;;;;;;;87.85;46.88;;;;;;;-144.47;100.00;61586.06;4958324;28;20043;-75
2022/01/27 11:03:53;;;;;;;84.40;45.95;;;;;;;-144.47;100.00;61586.06;4964986;28;20107;-74
2022/01/27 11:06:23;;;;;;;91.05;47.72;;;;;;;-144.47;100.00;61586.06;4960057;28;20144;-77
2022/01/27 11:08:48;;;;;;;87.68;46.67;;;;;;;-144.47;100.00;61586.06;4961940;28;20046;-76
2022/01/27 11:11:14;;;;;;;85.15;45.97;;;;;;;-144.47;100.00;61586.06;4969732;28;20038;-74
2022/01/27 11:13:43;;;;;;;88.07;45.95;;;;;;;-144.47;100.00;61586.06;4969865;28;20764;-75
2022/01/27 11:16:12;;;;;;;91.05;47.65;;;;;;;-144.47;100.00;61586.06;4965083;28;20053;-73
2022/01/27 11:18:39;;;;;;;85.82;48.00;;;;;;;-144.47;100.00;61586.06;4966319;28;20496;-76
2022/01/27 11:21:12;;;;;;;93.55;48.80;;;;;;;-144.47;100.00;61586.06;4969739;28;20030;-77
2022/01/27 11:26:12;;;;;;;91.75;48.42;;;;;;;-144.47;100.00;61586.06;4965538;28;20030;-75
2022/01/27 11:28:45;;;;;;;87.78;46.83;;;;;;;-144.47;100.00;61586.06;4966239;28;20038;-74
2022/01/27 11:31:28;;;;;;;90.28;47.58;;;;;;;-144.47;100.00;61586.06;4965678;28;20042;-75
2022/01/27 11:34:03;;;;;;;83.05;47.58;;;;;;;-144.47;100.00;61586.06;4970028;28;20038;-75
2022/01/27 11:36:29;;;;;;;80.30;46.30;;;;;;;-144.47;100.00;61586.06;4622629;28;9999903;-73